createdAt,value
2023-05-19T00:02:34.007Z,23.26
2023-05-19T00:05:34.989Z,23.32
2023-05-19T00:08:36.799Z,23.01
2023-05-19T00:11:37.788Z,23.03
2023-05-19T00:14:38.781Z,22.84
2023-05-19T00:17:40.784Z,22.90
2023-05-19T00:20:41.804Z,23.06
2023-05-19T00:23:42.777Z,23.31
2023-05-19T00:26:43.848Z,22.88
2023-05-19T00:29:44.771Z,22.85
2023-05-19T00:32:45.830Z,22.89
2023-05-19T00:35:47.771Z,22.92
2023-05-19T00:38:48.860Z,23.12
2023-05-19T00:41:49.753Z,22.81
2023-05-19T00:44:53.789Z,23.08
2023-05-19T00:47:55.880Z,22.76
2023-05-19T00:50:56.788Z,22.80
2023-05-19T00:53:58.810Z,22.73
2023-05-19T00:56:59.773Z,23.03
2023-05-19T01:00:01.790Z,23.24
2023-05-19T01:03:02.943Z,22.76
2023-05-19T01:06:03.831Z,23.18
2023-05-19T01:09:04.765Z,22.82
2023-05-19T01:12:05.793Z,22.76
2023-05-19T01:15:06.819Z,23.31
2023-05-19T01:18:07.871Z,23.26
2023-05-19T01:21:17.783Z,23.28
2023-05-19T01:24:24.785Z,22.89
2023-05-19T01:27:28.800Z,22.94
2023-05-19T01:30:38.788Z,23.09
2023-05-19T01:33:40.773Z,22.80
2023-05-19T01:36:41.754Z,23.25
2023-05-19T01:39:42.773Z,22.96
2023-05-19T01:42:46.786Z,22.33
2023-05-19T01:45:47.834Z,22.72
2023-05-19T01:48:48.748Z,23.02
2023-05-19T01:51:49.807Z,23.18
2023-05-19T01:54:50.808Z,23.22
2023-05-19T01:57:54.789Z,22.99
2023-05-19T02:00:55.886Z,23.44
2023-05-19T02:04:01.805Z,23.38
2023-05-19T02:07:22.788Z,23.27
2023-05-19T02:10:37.789Z,22.87
2023-05-19T02:13:42.749Z,23.22
2023-05-19T02:16:43.782Z,23.05
2023-05-19T02:19:48.774Z,23.08
2023-05-19T02:22:49.796Z,22.63
2023-05-19T02:25:50.768Z,23.04
2023-05-19T02:28:52.800Z,23.04
2023-05-19T02:31:53.859Z,23.08
2023-05-19T02:34:54.755Z,22.76
2023-05-19T02:37:55.764Z,22.98
2023-05-19T02:40:56.749Z,23.07
2023-05-19T02:43:57.772Z,22.99
2023-05-19T02:46:58.790Z,22.68
2023-05-19T02:49:59.813Z,22.53
2023-05-19T02:52:53.736Z,22.41
2023-05-19T02:55:54.810Z,22.66
2023-05-19T02:58:55.741Z,22.60
2023-05-19T03:01:56.848Z,22.76
2023-05-19T03:04:57.754Z,22.45
2023-05-19T03:07:58.775Z,22.70
2023-05-19T03:10:59.793Z,22.74
2023-05-19T03:14:00.785Z,22.43
2023-05-19T03:17:02.831Z,22.70
2023-05-19T03:19:57.766Z,22.54
2023-05-19T03:22:59.765Z,22.73
2023-05-19T03:26:02.735Z,22.82
2023-05-19T03:29:03.768Z,22.76
2023-05-19T03:32:04.772Z,22.65
2023-05-19T03:35:05.784Z,22.48
2023-05-19T03:38:06.769Z,22.77
2023-05-19T03:41:13.773Z,22.64
2023-05-19T03:44:14.796Z,22.67
2023-05-19T03:47:15.817Z,22.51
2023-05-19T03:50:29.870Z,22.86
2023-05-19T03:53:44.783Z,22.62
2023-05-19T03:56:45.783Z,22.66
2023-05-19T03:59:47.785Z,22.71
2023-05-19T04:02:48.897Z,22.87
2023-05-19T04:05:49.744Z,22.81
2023-05-19T04:08:50.762Z,23.26
2023-05-19T04:11:51.779Z,23.14
2023-05-19T04:14:52.786Z,23.28
2023-05-19T04:17:53.832Z,23.27
2023-05-19T04:20:54.768Z,23.27
2023-05-19T04:23:55.743Z,23.21
2023-05-19T04:26:56.768Z,23.07
2023-05-19T04:29:57.757Z,23.34
2023-05-19T04:32:58.776Z,23.44
2023-05-19T04:35:59.756Z,23.24
2023-05-19T04:39:01.735Z,23.21
2023-05-19T04:42:02.767Z,23.59
2023-05-19T04:45:04.753Z,23.65
2023-05-19T04:48:02.108Z,23.14
2023-05-19T04:50:55.761Z,23.23
2023-05-19T04:53:56.753Z,23.51
2023-05-19T04:56:57.746Z,22.67
2023-05-19T05:00:06.758Z,22.84
2023-05-19T05:03:20.836Z,23.60
2023-05-19T05:06:21.765Z,23.31
2023-05-19T05:09:22.803Z,23.39
2023-05-19T05:12:25.762Z,23.61
2023-05-19T05:15:26.749Z,23.22
2023-05-19T05:18:29.759Z,23.48
2023-05-19T05:21:30.730Z,23.51
2023-05-19T05:24:31.716Z,23.07
2023-05-19T05:27:32.805Z,23.02
2023-05-19T05:30:34.739Z,23.29
2023-05-19T05:33:35.781Z,23.24
2023-05-19T05:36:37.728Z,22.67
2023-05-19T05:39:38.747Z,22.67
2023-05-19T05:42:39.777Z,22.96
2023-05-19T05:45:40.795Z,23.24
2023-05-19T05:48:34.868Z,23.28
2023-05-19T05:51:28.744Z,23.20
2023-05-19T05:54:31.783Z,22.93
2023-05-19T05:57:32.748Z,21.42
2023-05-19T06:00:35.118Z,20.86
2023-05-19T06:03:35.755Z,21.91
2023-05-19T06:06:40.752Z,21.91
2023-05-19T06:09:46.725Z,22.09
2023-05-19T06:12:47.726Z,22.58
2023-05-19T06:15:48.906Z,22.61
2023-05-19T06:18:57.811Z,22.23
2023-05-19T06:21:58.756Z,21.13
2023-05-19T06:25:00.751Z,21.75
2023-05-19T06:28:01.715Z,21.55
2023-05-19T06:31:02.833Z,21.67
2023-05-19T06:34:18.727Z,21.51
2023-05-19T06:37:23.742Z,21.68
2023-05-19T06:40:24.745Z,21.66
2023-05-19T06:43:25.849Z,21.63
2023-05-19T06:46:30.791Z,21.38
2023-05-19T06:49:31.756Z,21.35
2023-05-19T06:52:32.772Z,21.52
2023-05-19T06:55:35.630Z,21.30
2023-05-19T06:58:41.782Z,21.28
2023-05-19T07:01:42.753Z,21.28
2023-05-19T07:04:44.769Z,20.98
2023-05-19T07:07:45.773Z,21.05
2023-05-19T07:10:51.752Z,21.04
2023-05-19T07:13:52.727Z,20.58
2023-05-19T07:16:57.725Z,20.99
2023-05-19T07:19:59.741Z,20.69
2023-05-19T07:23:00.736Z,20.47
2023-05-19T07:26:02.714Z,20.46
2023-05-19T07:29:04.740Z,20.34
2023-05-19T07:32:05.730Z,20.20
2023-05-19T07:35:06.732Z,20.18
2023-05-19T07:38:07.756Z,19.95
2023-05-19T07:41:08.755Z,20.00
2023-05-19T07:44:13.774Z,20.21
2023-05-19T07:47:14.698Z,20.12
2023-05-19T07:50:15.724Z,20.69
2023-05-19T07:53:16.768Z,20.14
2023-05-19T07:56:17.742Z,20.37
2023-05-19T07:59:18.777Z,20.29
2023-05-19T08:02:19.867Z,20.29
2023-05-19T08:05:20.722Z,20.26
2023-05-19T08:08:23.805Z,20.39
2023-05-19T08:11:24.740Z,20.65
2023-05-19T08:14:25.795Z,19.98
2023-05-19T08:17:26.756Z,20.06
2023-05-19T08:20:28.746Z,20.42
2023-05-19T08:23:29.712Z,19.67
2023-05-19T08:26:30.702Z,20.20
2023-05-19T08:29:31.719Z,19.93
2023-05-19T08:32:32.759Z,20.08
2023-05-19T08:35:33.734Z,20.37
2023-05-19T08:38:34.720Z,20.34
2023-05-19T08:41:35.738Z,20.33
2023-05-19T08:44:37.703Z,20.21
2023-05-19T08:47:38.784Z,20.30
2023-05-19T08:50:43.720Z,20.42
2023-05-19T08:53:50.735Z,20.27
2023-05-19T08:56:51.715Z,20.45
2023-05-19T08:59:52.719Z,20.63
2023-05-19T09:03:00.232Z,20.71
2023-05-19T09:06:06.758Z,20.27
2023-05-19T09:09:08.075Z,20.40
2023-05-19T09:12:08.697Z,20.31
2023-05-19T09:15:09.738Z,20.46
2023-05-19T09:18:23.706Z,20.90
2023-05-19T09:21:24.777Z,20.70
2023-05-19T09:24:25.717Z,20.75
2023-05-19T09:27:28.717Z,20.88
2023-05-19T09:30:29.749Z,21.02
2023-05-19T09:33:33.706Z,20.87
2023-05-19T09:36:34.695Z,20.53
2023-05-19T09:39:37.696Z,20.84
2023-05-19T09:42:38.784Z,20.56
2023-05-19T09:45:40.820Z,21.19
2023-05-19T09:48:41.750Z,21.05
2023-05-19T09:51:36.021Z,20.81
2023-05-19T09:54:37.718Z,21.14
2023-05-19T09:57:40.767Z,20.82
2023-05-19T10:00:42.699Z,20.54
2023-05-19T10:03:44.701Z,21.48
2023-05-19T10:06:45.721Z,21.13
2023-05-19T10:09:47.720Z,21.12
2023-05-19T10:12:48.708Z,21.52
2023-05-19T10:15:58.254Z,21.03
2023-05-19T10:19:00.786Z,21.29
2023-05-19T10:22:01.698Z,21.52
2023-05-19T10:25:02.708Z,21.08
2023-05-19T10:28:18.741Z,20.96
2023-05-19T10:31:21.732Z,20.99
2023-05-19T10:34:34.685Z,21.11
2023-05-19T10:37:37.723Z,21.34
2023-05-19T10:40:42.723Z,21.12
2023-05-19T10:43:43.721Z,20.68
2023-05-19T10:46:44.787Z,20.85
2023-05-19T10:49:48.711Z,20.69
2023-05-19T10:52:45.789Z,20.90
2023-05-19T10:55:53.689Z,21.29
2023-05-19T10:58:56.700Z,21.58
2023-05-19T11:01:57.771Z,20.66
2023-05-19T11:05:04.743Z,21.31
2023-05-19T11:08:11.690Z,20.85
2023-05-19T11:11:25.704Z,21.37
2023-05-19T11:14:26.678Z,21.67
2023-05-19T11:17:29.747Z,21.61
2023-05-19T11:20:42.733Z,21.45
2023-05-19T11:23:50.764Z,21.26
2023-05-19T11:26:54.708Z,20.90
2023-05-19T11:29:55.726Z,20.69
2023-05-19T11:32:57.946Z,21.20
2023-05-19T11:36:01.686Z,21.00
2023-05-19T11:39:03.741Z,21.42
2023-05-19T11:42:04.668Z,21.00
2023-05-19T11:45:08.705Z,21.36
2023-05-19T11:48:12.805Z,21.27
2023-05-19T11:51:13.679Z,21.05
2023-05-19T11:54:08.784Z,21.56
2023-05-19T11:57:02.696Z,21.22
2023-05-19T12:00:03.728Z,21.05
2023-05-19T12:03:04.796Z,20.98
2023-05-19T12:06:05.742Z,21.46
2023-05-19T12:09:07.737Z,21.40
2023-05-19T12:12:08.685Z,21.40
2023-05-19T12:15:09.721Z,21.49
2023-05-19T12:18:11.715Z,21.61
2023-05-19T12:21:12.661Z,21.29
2023-05-19T12:24:13.727Z,21.38
2023-05-19T12:27:23.670Z,21.50
2023-05-19T12:30:24.718Z,21.39
2023-05-19T12:33:25.715Z,21.76
2023-05-19T12:36:26.700Z,21.41
2023-05-19T12:39:27.669Z,21.30
2023-05-19T12:42:28.672Z,21.55
2023-05-19T12:45:34.710Z,21.07
2023-05-19T12:48:35.732Z,21.32
2023-05-19T12:51:36.680Z,21.34
2023-05-19T12:54:38.732Z,21.18
2023-05-19T12:57:39.666Z,21.59
2023-05-19T13:00:40.762Z,21.97
2023-05-19T13:03:42.787Z,21.90
2023-05-19T13:06:43.679Z,21.91
2023-05-19T13:09:44.679Z,21.76
2023-05-19T13:12:54.673Z,21.43
2023-05-19T13:15:56.700Z,21.19
2023-05-19T13:18:57.690Z,21.50
2023-05-19T13:21:58.689Z,22.21
2023-05-19T13:24:59.684Z,22.23
2023-05-19T13:28:00.688Z,22.19
2023-05-19T13:31:01.687Z,22.19
2023-05-19T13:34:02.689Z,21.88
2023-05-19T13:37:03.793Z,22.29
2023-05-19T13:40:04.707Z,22.11
2023-05-19T13:43:05.706Z,22.09
2023-05-19T13:46:06.720Z,22.76
2023-05-19T13:49:07.678Z,22.54
2023-05-19T13:52:11.680Z,22.54
2023-05-19T13:55:12.688Z,22.41
2023-05-19T13:58:13.882Z,22.52
2023-05-19T14:01:07.730Z,22.35
2023-05-19T14:04:08.919Z,22.52
2023-05-19T14:07:09.671Z,22.08
2023-05-19T14:10:11.643Z,22.65
2023-05-19T14:13:31.556Z,22.61
2023-05-19T14:16:35.478Z,22.35
2023-05-19T14:19:36.678Z,22.26
2023-05-19T14:22:37.655Z,22.58
2023-05-19T14:25:38.695Z,22.09
2023-05-19T14:28:39.657Z,22.50
2023-05-19T14:31:40.704Z,22.21
2023-05-19T14:34:41.681Z,22.19
2023-05-19T14:37:42.639Z,22.52
2023-05-19T14:40:43.668Z,22.12
2023-05-19T14:43:45.915Z,22.13
2023-05-19T14:46:47.746Z,22.33
2023-05-19T14:49:48.685Z,22.88
2023-05-19T14:52:49.688Z,22.54
2023-05-19T14:55:50.702Z,22.37
2023-05-19T14:58:51.688Z,22.56
2023-05-19T15:01:52.711Z,22.15
2023-05-19T15:04:53.684Z,22.58
2023-05-19T15:07:54.672Z,22.48
2023-05-19T15:10:55.695Z,22.44
2023-05-19T15:13:56.731Z,22.36
2023-05-19T15:16:57.752Z,22.04
2023-05-19T15:19:58.664Z,22.81
2023-05-19T15:22:59.658Z,22.75
2023-05-19T15:26:00.680Z,22.32
2023-05-19T15:29:01.640Z,22.40
2023-05-19T15:32:05.707Z,22.81
2023-05-19T15:35:06.870Z,22.80
2023-05-19T15:38:12.653Z,22.69
2023-05-19T15:41:13.672Z,22.80
2023-05-19T15:44:14.653Z,22.48
2023-05-19T15:47:15.636Z,22.50
2023-05-19T15:50:16.964Z,22.53
2023-05-19T15:53:17.686Z,22.74
2023-05-19T15:56:18.706Z,22.46
2023-05-19T15:59:19.649Z,22.40
2023-05-19T16:02:20.726Z,22.68
2023-05-19T16:05:21.655Z,22.60
2023-05-19T16:08:22.675Z,22.63
2023-05-19T16:11:24.676Z,22.55
2023-05-19T16:14:26.859Z,22.44
2023-05-19T16:17:28.792Z,22.33
2023-05-19T16:20:33.809Z,22.52
2023-05-19T16:23:34.672Z,22.39
2023-05-19T16:26:28.645Z,22.66
2023-05-19T16:29:29.660Z,22.51
2023-05-19T16:32:30.674Z,21.84
2023-05-19T16:35:31.803Z,22.57
2023-05-19T16:38:33.663Z,22.31
2023-05-19T16:41:34.687Z,22.40
2023-05-19T16:44:35.635Z,22.43
2023-05-19T16:47:36.845Z,22.27
2023-05-19T16:50:37.874Z,22.32
2023-05-19T16:53:38.706Z,22.46
2023-05-19T16:56:39.628Z,22.45
2023-05-19T16:59:40.715Z,22.63
2023-05-19T17:02:41.767Z,21.86
2023-05-19T17:05:42.729Z,22.42
2023-05-19T17:08:43.649Z,21.90
2023-05-19T17:11:44.669Z,22.36
2023-05-19T17:14:45.669Z,21.52
2023-05-19T17:17:46.710Z,21.77
2023-05-19T17:20:48.632Z,22.33
2023-05-19T17:23:49.681Z,22.03
2023-05-19T17:26:50.661Z,21.95
2023-05-19T17:29:51.690Z,22.48
2023-05-19T17:32:52.786Z,22.46
2023-05-19T17:35:53.954Z,22.26
2023-05-19T17:38:54.648Z,22.43
2023-05-19T17:41:55.695Z,22.18
2023-05-19T17:44:56.657Z,22.26
2023-05-19T17:47:57.740Z,22.35
2023-05-19T17:51:02.397Z,22.42
2023-05-19T17:54:03.706Z,22.81
2023-05-19T17:57:04.641Z,22.49
2023-05-19T18:00:05.693Z,22.51
2023-05-19T18:03:07.742Z,22.87
2023-05-19T18:06:08.706Z,22.82
2023-05-19T18:09:14.666Z,22.96
2023-05-19T18:12:15.653Z,22.35
2023-05-19T18:15:16.633Z,22.93
2023-05-19T18:18:18.676Z,22.87
2023-05-19T18:21:21.648Z,22.54
2023-05-19T18:24:22.683Z,22.56
2023-05-19T18:27:23.637Z,22.65
2023-05-19T18:30:24.675Z,22.58
2023-05-19T18:33:27.313Z,22.34
2023-05-19T18:36:29.753Z,22.34
2023-05-19T18:39:30.628Z,22.67
2023-05-19T18:42:31.659Z,22.44
2023-05-19T18:45:32.687Z,22.66
2023-05-19T18:48:33.668Z,22.57
2023-05-19T18:51:34.635Z,22.74
2023-05-19T18:54:35.663Z,22.34
2023-05-19T18:57:36.620Z,22.58
2023-05-19T19:00:37.690Z,22.59
2023-05-19T19:03:38.609Z,22.58
2023-05-19T19:06:40.189Z,22.79
2023-05-19T19:09:41.624Z,22.70
2023-05-19T19:12:42.695Z,22.85
2023-05-19T19:15:43.616Z,22.91
2023-05-19T19:18:44.888Z,23.03
2023-05-19T19:21:45.657Z,22.65
2023-05-19T19:24:46.668Z,22.64
2023-05-19T19:27:47.624Z,22.67
2023-05-19T19:30:48.689Z,22.66
2023-05-19T19:33:49.632Z,22.81
2023-05-19T19:36:51.915Z,22.73
2023-05-19T19:39:53.700Z,22.58
2023-05-19T19:42:54.688Z,22.62
2023-05-19T19:45:55.784Z,22.80
2023-05-19T19:48:56.634Z,22.69
2023-05-19T19:51:57.687Z,22.60
2023-05-19T19:54:58.666Z,22.92
2023-05-19T19:57:59.679Z,22.82
2023-05-19T20:01:00.709Z,22.90
2023-05-19T20:04:01.741Z,22.59
2023-05-19T20:07:02.741Z,22.56
2023-05-19T20:10:03.648Z,22.65
2023-05-19T20:13:05.653Z,22.84
2023-05-19T20:16:06.743Z,22.72
2023-05-19T20:19:09.185Z,22.86
2023-05-19T20:22:10.595Z,22.58
2023-05-19T20:25:11.701Z,22.62
2023-05-19T20:28:12.711Z,22.62
2023-05-19T20:31:13.654Z,22.87
2023-05-19T20:34:14.682Z,23.02
2023-05-19T20:37:41.963Z,22.96
2023-05-19T20:40:42.628Z,22.62
2023-05-19T20:43:43.666Z,22.75
2023-05-19T20:46:44.641Z,22.72
2023-05-19T20:49:45.716Z,23.20
2023-05-19T20:52:46.673Z,22.57
2023-05-19T20:55:47.687Z,22.47
2023-05-19T20:58:41.777Z,22.52
2023-05-19T21:01:36.683Z,22.73
2023-05-19T21:04:39.739Z,22.83
2023-05-19T21:07:40.652Z,22.40
2023-05-19T21:10:41.662Z,22.69
2023-05-19T21:13:45.655Z,22.73
2023-05-19T21:16:46.640Z,22.63
2023-05-19T21:19:48.518Z,22.49
2023-05-19T21:22:49.666Z,22.52
2023-05-19T21:25:50.698Z,22.35
2023-05-19T21:28:51.624Z,22.50
2023-05-19T21:31:52.651Z,22.42
2023-05-19T21:34:53.756Z,22.68
2023-05-19T21:37:54.970Z,22.60
2023-05-19T21:40:55.588Z,22.56
2023-05-19T21:43:56.664Z,22.97
2023-05-19T21:46:57.701Z,22.47
2023-05-19T21:49:58.666Z,22.57
2023-05-19T21:52:59.608Z,22.37
2023-05-19T21:56:00.665Z,22.53
2023-05-19T21:59:01.588Z,22.63
2023-05-19T22:02:02.809Z,22.49
2023-05-19T22:05:03.598Z,22.44
2023-05-19T22:08:04.678Z,22.71
2023-05-19T22:11:05.595Z,22.44
2023-05-19T22:14:06.656Z,22.36
2023-05-19T22:17:07.600Z,22.41
2023-05-19T22:20:08.658Z,22.29
2023-05-19T22:23:10.599Z,22.45
2023-05-19T22:26:11.631Z,22.52
2023-05-19T22:29:12.611Z,22.41
2023-05-19T22:32:13.678Z,22.83
2023-05-19T22:35:14.621Z,22.73
2023-05-19T22:38:15.712Z,22.55
2023-05-19T22:41:16.614Z,22.59
2023-05-19T22:44:19.711Z,22.55
2023-05-19T22:47:20.575Z,22.63
2023-05-19T22:50:21.652Z,22.41
2023-05-19T22:53:22.624Z,22.73
2023-05-19T22:56:23.622Z,22.87
2023-05-19T22:59:24.589Z,22.75
2023-05-19T23:02:26.706Z,23.11
2023-05-19T23:05:27.607Z,22.87
2023-05-19T23:08:28.635Z,22.64
2023-05-19T23:11:29.603Z,22.48
2023-05-19T23:14:32.632Z,22.82
2023-05-19T23:17:33.660Z,23.02
2023-05-19T23:20:34.652Z,23.39
2023-05-19T23:23:35.566Z,22.65
2023-05-19T23:26:36.644Z,22.69
2023-05-19T23:29:37.581Z,22.60
2023-05-19T23:32:38.714Z,22.62
2023-05-19T23:35:39.590Z,22.85
2023-05-19T23:38:40.807Z,22.89
2023-05-19T23:41:41.632Z,22.68
2023-05-19T23:44:42.666Z,22.43
2023-05-19T23:48:01.645Z,22.55
2023-05-19T23:51:04.614Z,22.67
2023-05-19T23:54:05.584Z,22.50
2023-05-19T23:57:06.630Z,22.40
